sensor_id;sensor_type;location;lat;lon;timestamp;pressure;altitude;pressure_sealevel;temperature;humidity
62632;BME280;48703;51.248;-0.546;2023-09-18T00:02:33;99700;;;16.73;100.00
62632;BME280;48703;51.248;-0.546;2023-09-18T00:05:35;99687;;;16.72;100.00
62632;BME280;48703;51.248;-0.546;2023-09-18T00:08:37;99685;;;16.69;100.00
62632;BME280;48703;51.248;-0.546;2023-09-18T00:11:39;99688;;;16.67;100.00
62632;BME280;48703;51.248;-0.546;2023-09-18T00:14:41;99695;;;16.66;100.00
62632;BME280;48703;51.248;-0.546;2023-09-18T00:17:43;99694;;;16.64;100.00
62632;BME280;48703;51.248;-0.546;2023-09-18T00:20:45;99698;;;16.63;100.00
62632;BME280;48703;51.248;-0.546;2023-09-18T00:23:47;99706;;;16.62;100.00
62632;BME280;48703;51.248;-0.546;2023-09-18T00:26:49;99717;;;16.60;100.00
62632;BME280;48703;51.248;-0.546;2023-09-18T00:29:51;99715;;;16.58;100.00
62632;BME280;48703;51.248;-0.546;2023-09-18T00:32:53;99713;;;16.56;100.00
62632;BME280;48703;51.248;-0.546;2023-09-18T00:35:55;99718;;;16.54;100.00
62632;BME280;48703;51.248;-0.546;2023-09-18T00:38:57;99716;;;16.53;100.00
62632;BME280;48703;51.248;-0.546;2023-09-18T00:42:00;99708;;;16.51;100.00
62632;BME280;48703;51.248;-0.546;2023-09-18T00:45:02;99697;;;16.49;100.00
62632;BME280;48703;51.248;-0.546;2023-09-18T00:48:04;99686;;;16.46;100.00
62632;BME280;48703;51.248;-0.546;2023-09-18T00:51:06;99681;;;16.46;100.00
62632;BME280;48703;51.248;-0.546;2023-09-18T00:54:08;99673;;;16.46;100.00
62632;BME280;48703;51.248;-0.546;2023-09-18T00:57:10;99665;;;16.46;100.00
62632;BME280;48703;51.248;-0.546;2023-09-18T01:00:12;99655;;;16.45;100.00
62632;BME280;48703;51.248;-0.546;2023-09-18T01:03:14;99641;;;16.46;100.00
62632;BME280;48703;51.248;-0.546;2023-09-18T01:06:16;99626;;;16.45;100.00
62632;BME280;48703;51.248;-0.546;2023-09-18T01:09:18;99615;;;16.45;100.00
62632;BME280;48703;51.248;-0.546;2023-09-18T01:12:22;99608;;;16.46;100.00
62632;BME280;48703;51.248;-0.546;2023-09-18T01:15:25;99597;;;16.46;100.00
62632;BME280;48703;51.248;-0.546;2023-09-18T01:18:25;99581;;;16.47;100.00
62632;BME280;48703;51.248;-0.546;2023-09-18T01:21:26;99563;;;16.47;100.00
62632;BME280;48703;51.248;-0.546;2023-09-18T01:24:28;99549;;;16.48;100.00
62632;BME280;48703;51.248;-0.546;2023-09-18T01:27:31;99519;;;16.49;100.00
62632;BME280;48703;51.248;-0.546;2023-09-18T01:30:33;99561;;;16.49;100.00
62632;BME280;48703;51.248;-0.546;2023-09-18T01:33:35;99585;;;16.48;100.00
62632;BME280;48703;51.248;-0.546;2023-09-18T01:36:37;99589;;;16.48;100.00
62632;BME280;48703;51.248;-0.546;2023-09-18T01:39:39;99576;;;16.49;100.00
62632;BME280;48703;51.248;-0.546;2023-09-18T01:42:41;99569;;;16.48;100.00
62632;BME280;48703;51.248;-0.546;2023-09-18T01:45:43;99550;;;16.48;100.00
62632;BME280;48703;51.248;-0.546;2023-09-18T01:48:45;99549;;;16.48;100.00
62632;BME280;48703;51.248;-0.546;2023-09-18T01:51:47;99539;;;16.47;100.00
62632;BME280;48703;51.248;-0.546;2023-09-18T01:54:49;99534;;;16.47;100.00
62632;BME280;48703;51.248;-0.546;2023-09-18T01:57:51;99529;;;16.46;100.00
62632;BME280;48703;51.248;-0.546;2023-09-18T02:00:53;99520;;;16.46;100.00
62632;BME280;48703;51.248;-0.546;2023-09-18T02:03:55;99521;;;16.45;100.00
62632;BME280;48703;51.248;-0.546;2023-09-18T02:06:58;99526;;;16.45;100.00
62632;BME280;48703;51.248;-0.546;2023-09-18T02:10:00;99531;;;16.43;100.00
62632;BME280;48703;51.248;-0.546;2023-09-18T02:13:02;99529;;;16.42;100.00
62632;BME280;48703;51.248;-0.546;2023-09-18T02:16:04;99526;;;16.41;100.00
62632;BME280;48703;51.248;-0.546;2023-09-18T02:19:06;99530;;;16.41;100.00
62632;BME280;48703;51.248;-0.546;2023-09-18T02:22:08;99533;;;16.38;100.00
62632;BME280;48703;51.248;-0.546;2023-09-18T02:25:10;99530;;;16.37;100.00
62632;BME280;48703;51.248;-0.546;2023-09-18T02:28:12;99527;;;16.37;100.00
62632;BME280;48703;51.248;-0.546;2023-09-18T02:31:14;99522;;;16.35;100.00
62632;BME280;48703;51.248;-0.546;2023-09-18T02:34:16;99514;;;16.33;100.00
62632;BME280;48703;51.248;-0.546;2023-09-18T02:37:18;99518;;;16.32;100.00
62632;BME280;48703;51.248;-0.546;2023-09-18T02:40:20;99523;;;16.31;100.00
62632;BME280;48703;51.248;-0.546;2023-09-18T02:43:22;99524;;;16.29;100.00
62632;BME280;48703;51.248;-0.546;2023-09-18T02:46:24;99522;;;16.26;100.00
62632;BME280;48703;51.248;-0.546;2023-09-18T02:49:26;99522;;;16.24;100.00
62632;BME280;48703;51.248;-0.546;2023-09-18T02:52:28;99519;;;16.23;100.00
62632;BME280;48703;51.248;-0.546;2023-09-18T02:55:31;99522;;;16.22;100.00
62632;BME280;48703;51.248;-0.546;2023-09-18T02:58:33;99524;;;16.21;100.00
62632;BME280;48703;51.248;-0.546;2023-09-18T03:01:35;99534;;;16.19;100.00
62632;BME280;48703;51.248;-0.546;2023-09-18T03:04:37;99536;;;16.17;100.00
62632;BME280;48703;51.248;-0.546;2023-09-18T03:07:39;99526;;;16.16;100.00
62632;BME280;48703;51.248;-0.546;2023-09-18T03:10:41;99522;;;16.16;100.00
62632;BME280;48703;51.248;-0.546;2023-09-18T03:13:43;99524;;;16.15;100.00
62632;BME280;48703;51.248;-0.546;2023-09-18T03:16:45;99519;;;16.14;100.00
62632;BME280;48703;51.248;-0.546;2023-09-18T03:19:47;99515;;;16.14;100.00
62632;BME280;48703;51.248;-0.546;2023-09-18T03:22:50;99517;;;16.13;100.00
62632;BME280;48703;51.248;-0.546;2023-09-18T03:25:51;99515;;;16.12;100.00
62632;BME280;48703;51.248;-0.546;2023-09-18T03:28:53;99510;;;16.11;100.00
62632;BME280;48703;51.248;-0.546;2023-09-18T03:31:55;99509;;;16.09;100.00
62632;BME280;48703;51.248;-0.546;2023-09-18T03:34:57;99514;;;16.08;100.00
62632;BME280;48703;51.248;-0.546;2023-09-18T03:38:00;99516;;;16.06;100.00
62632;BME280;48703;51.248;-0.546;2023-09-18T03:41:02;99516;;;16.05;100.00
62632;BME280;48703;51.248;-0.546;2023-09-18T03:44:04;99514;;;16.04;100.00
62632;BME280;48703;51.248;-0.546;2023-09-18T03:47:06;99515;;;16.03;100.00
62632;BME280;48703;51.248;-0.546;2023-09-18T03:50:08;99522;;;16.04;100.00
62632;BME280;48703;51.248;-0.546;2023-09-18T03:53:10;99521;;;16.05;100.00
62632;BME280;48703;51.248;-0.546;2023-09-18T03:56:12;99518;;;16.05;100.00
62632;BME280;48703;51.248;-0.546;2023-09-18T03:59:14;99511;;;16.06;100.00
62632;BME280;48703;51.248;-0.546;2023-09-18T04:02:16;99510;;;16.05;100.00
62632;BME280;48703;51.248;-0.546;2023-09-18T04:05:18;99513;;;16.05;100.00
62632;BME280;48703;51.248;-0.546;2023-09-18T04:08:20;99510;;;16.05;100.00
62632;BME280;48703;51.248;-0.546;2023-09-18T04:11:22;99507;;;16.06;100.00
62632;BME280;48703;51.248;-0.546;2023-09-18T04:14:24;99508;;;16.06;100.00
62632;BME280;48703;51.248;-0.546;2023-09-18T04:17:26;99509;;;16.06;100.00
62632;BME280;48703;51.248;-0.546;2023-09-18T04:20:29;99506;;;16.07;100.00
62632;BME280;48703;51.248;-0.546;2023-09-18T04:23:30;99501;;;16.09;100.00
62632;BME280;48703;51.248;-0.546;2023-09-18T04:26:33;99505;;;16.10;100.00
62632;BME280;48703;51.248;-0.546;2023-09-18T04:29:35;99507;;;16.13;100.00
62632;BME280;48703;51.248;-0.546;2023-09-18T04:32:37;99511;;;16.13;100.00
62632;BME280;48703;51.248;-0.546;2023-09-18T04:35:39;99510;;;16.14;100.00
62632;BME280;48703;51.248;-0.546;2023-09-18T04:38:41;99516;;;16.17;100.00
62632;BME280;48703;51.248;-0.546;2023-09-18T04:41:43;99522;;;16.16;100.00
62632;BME280;48703;51.248;-0.546;2023-09-18T04:44:45;99521;;;16.16;100.00
62632;BME280;48703;51.248;-0.546;2023-09-18T04:47:47;99521;;;16.18;100.00
62632;BME280;48703;51.248;-0.546;2023-09-18T04:50:49;99522;;;16.19;100.00
62632;BME280;48703;51.248;-0.546;2023-09-18T04:53:51;99516;;;16.19;100.00
62632;BME280;48703;51.248;-0.546;2023-09-18T04:56:53;99511;;;16.20;100.00
62632;BME280;48703;51.248;-0.546;2023-09-18T04:59:55;99508;;;16.21;100.00
62632;BME280;48703;51.248;-0.546;2023-09-18T05:02:57;99504;;;16.20;100.00
62632;BME280;48703;51.248;-0.546;2023-09-18T05:05:59;99505;;;16.19;100.00
62632;BME280;48703;51.248;-0.546;2023-09-18T05:09:02;99507;;;16.18;100.00
62632;BME280;48703;51.248;-0.546;2023-09-18T05:12:04;99508;;;16.17;100.00
62632;BME280;48703;51.248;-0.546;2023-09-18T05:15:06;99511;;;16.14;100.00
62632;BME280;48703;51.248;-0.546;2023-09-18T05:18:08;99506;;;16.13;100.00
62632;BME280;48703;51.248;-0.546;2023-09-18T05:21:10;99507;;;16.12;100.00
62632;BME280;48703;51.248;-0.546;2023-09-18T05:24:12;99506;;;16.09;100.00
62632;BME280;48703;51.248;-0.546;2023-09-18T05:27:14;99508;;;16.07;100.00
62632;BME280;48703;51.248;-0.546;2023-09-18T05:30:18;99506;;;16.06;100.00
62632;BME280;48703;51.248;-0.546;2023-09-18T05:33:18;99503;;;16.04;100.00
62632;BME280;48703;51.248;-0.546;2023-09-18T05:36:20;99506;;;16.03;100.00
62632;BME280;48703;51.248;-0.546;2023-09-18T05:39:22;99505;;;16.02;100.00
62632;BME280;48703;51.248;-0.546;2023-09-18T05:42:24;99505;;;16.01;100.00
62632;BME280;48703;51.248;-0.546;2023-09-18T05:45:26;99507;;;16.00;100.00
62632;BME280;48703;51.248;-0.546;2023-09-18T05:48:28;99506;;;15.99;100.00
62632;BME280;48703;51.248;-0.546;2023-09-18T05:51:30;99503;;;15.99;100.00
62632;BME280;48703;51.248;-0.546;2023-09-18T05:54:32;99505;;;15.99;100.00
62632;BME280;48703;51.248;-0.546;2023-09-18T05:57:34;99506;;;15.99;100.00
62632;BME280;48703;51.248;-0.546;2023-09-18T06:00:37;99508;;;15.97;100.00
62632;BME280;48703;51.248;-0.546;2023-09-18T06:03:39;99506;;;15.96;100.00
62632;BME280;48703;51.248;-0.546;2023-09-18T06:06:41;99504;;;15.96;100.00
62632;BME280;48703;51.248;-0.546;2023-09-18T06:09:43;99503;;;15.95;100.00
62632;BME280;48703;51.248;-0.546;2023-09-18T06:12:45;99501;;;15.94;100.00
62632;BME280;48703;51.248;-0.546;2023-09-18T06:15:47;99503;;;15.93;100.00
62632;BME280;48703;51.248;-0.546;2023-09-18T06:18:49;99510;;;15.93;100.00
62632;BME280;48703;51.248;-0.546;2023-09-18T06:21:51;99510;;;15.93;100.00
62632;BME280;48703;51.248;-0.546;2023-09-18T06:24:53;99514;;;15.94;100.00
62632;BME280;48703;51.248;-0.546;2023-09-18T06:27:55;99513;;;15.96;100.00
62632;BME280;48703;51.248;-0.546;2023-09-18T06:30:57;99508;;;15.96;100.00
62632;BME280;48703;51.248;-0.546;2023-09-18T06:33:59;99508;;;15.96;100.00
62632;BME280;48703;51.248;-0.546;2023-09-18T06:37:01;99515;;;15.97;100.00
62632;BME280;48703;51.248;-0.546;2023-09-18T06:40:04;99514;;;15.97;100.00
62632;BME280;48703;51.248;-0.546;2023-09-18T06:43:05;99507;;;15.96;100.00
62632;BME280;48703;51.248;-0.546;2023-09-18T06:46:08;99506;;;15.96;100.00
62632;BME280;48703;51.248;-0.546;2023-09-18T06:49:10;99497;;;15.95;100.00
62632;BME280;48703;51.248;-0.546;2023-09-18T06:52:12;99498;;;15.94;100.00
62632;BME280;48703;51.248;-0.546;2023-09-18T06:55:14;99492;;;15.93;100.00
62632;BME280;48703;51.248;-0.546;2023-09-18T06:58:16;99488;;;15.92;100.00
62632;BME280;48703;51.248;-0.546;2023-09-18T07:01:18;99497;;;15.92;100.00
62632;BME280;48703;51.248;-0.546;2023-09-18T07:04:20;99498;;;15.92;100.00
62632;BME280;48703;51.248;-0.546;2023-09-18T07:07:22;99499;;;15.92;100.00
62632;BME280;48703;51.248;-0.546;2023-09-18T07:10:24;99499;;;15.92;100.00
62632;BME280;48703;51.248;-0.546;2023-09-18T07:13:26;99495;;;15.92;100.00
62632;BME280;48703;51.248;-0.546;2023-09-18T07:16:28;99494;;;15.94;100.00
62632;BME280;48703;51.248;-0.546;2023-09-18T07:19:30;99496;;;15.96;100.00
62632;BME280;48703;51.248;-0.546;2023-09-18T07:22:32;99498;;;16.00;100.00
62632;BME280;48703;51.248;-0.546;2023-09-18T07:25:34;99492;;;16.02;100.00
62632;BME280;48703;51.248;-0.546;2023-09-18T07:28:36;99489;;;16.05;100.00
62632;BME280;48703;51.248;-0.546;2023-09-18T07:31:39;99487;;;16.09;100.00
62632;BME280;48703;51.248;-0.546;2023-09-18T07:34:41;99484;;;16.10;100.00
62632;BME280;48703;51.248;-0.546;2023-09-18T07:37:43;99485;;;16.12;100.00
62632;BME280;48703;51.248;-0.546;2023-09-18T07:40:45;99485;;;16.14;100.00
62632;BME280;48703;51.248;-0.546;2023-09-18T07:43:47;99486;;;16.16;100.00
62632;BME280;48703;51.248;-0.546;2023-09-18T07:46:49;99484;;;16.17;100.00
62632;BME280;48703;51.248;-0.546;2023-09-18T07:49:51;99484;;;16.21;100.00
62632;BME280;48703;51.248;-0.546;2023-09-18T07:52:53;99484;;;16.23;100.00
62632;BME280;48703;51.248;-0.546;2023-09-18T07:55:55;99479;;;16.25;100.00
62632;BME280;48703;51.248;-0.546;2023-09-18T07:58:57;99476;;;16.28;100.00
62632;BME280;48703;51.248;-0.546;2023-09-18T08:01:59;99474;;;16.32;100.00
62632;BME280;48703;51.248;-0.546;2023-09-18T08:05:01;99473;;;16.35;100.00
62632;BME280;48703;51.248;-0.546;2023-09-18T08:08:04;99472;;;16.40;100.00
62632;BME280;48703;51.248;-0.546;2023-09-18T08:11:07;99471;;;16.44;100.00
62632;BME280;48703;51.248;-0.546;2023-09-18T08:14:07;99464;;;16.48;100.00
62632;BME280;48703;51.248;-0.546;2023-09-18T08:17:09;99466;;;16.51;100.00
62632;BME280;48703;51.248;-0.546;2023-09-18T08:20:12;99458;;;16.53;100.00
62632;BME280;48703;51.248;-0.546;2023-09-18T08:23:14;99449;;;16.55;100.00
62632;BME280;48703;51.248;-0.546;2023-09-18T08:26:16;99445;;;16.55;100.00
62632;BME280;48703;51.248;-0.546;2023-09-18T08:29:18;99446;;;16.56;100.00
62632;BME280;48703;51.248;-0.546;2023-09-18T08:32:20;99442;;;16.57;100.00
62632;BME280;48703;51.248;-0.546;2023-09-18T08:35:22;99431;;;16.57;100.00
62632;BME280;48703;51.248;-0.546;2023-09-18T08:38:24;99422;;;16.57;100.00
62632;BME280;48703;51.248;-0.546;2023-09-18T08:41:26;99423;;;16.56;100.00
62632;BME280;48703;51.248;-0.546;2023-09-18T08:44:28;99413;;;16.56;100.00
62632;BME280;48703;51.248;-0.546;2023-09-18T08:47:30;99422;;;16.55;100.00
62632;BME280;48703;51.248;-0.546;2023-09-18T08:50:32;99419;;;16.55;100.00
62632;BME280;48703;51.248;-0.546;2023-09-18T08:53:35;99409;;;16.57;100.00
62632;BME280;48703;51.248;-0.546;2023-09-18T08:56:36;99401;;;16.58;100.00
62632;BME280;48703;51.248;-0.546;2023-09-18T08:59:39;99388;;;16.62;100.00
62632;BME280;48703;51.248;-0.546;2023-09-18T09:02:40;99388;;;16.63;100.00
62632;BME280;48703;51.248;-0.546;2023-09-18T09:05:42;99376;;;16.65;100.00
62632;BME280;48703;51.248;-0.546;2023-09-18T09:08:45;99367;;;16.70;100.00
62632;BME280;48703;51.248;-0.546;2023-09-18T09:11:48;99361;;;16.77;100.00
62632;BME280;48703;51.248;-0.546;2023-09-18T09:15:01;99352;;;16.82;100.00
62632;BME280;48703;51.248;-0.546;2023-09-18T09:17:51;99346;;;16.88;100.00
62632;BME280;48703;51.248;-0.546;2023-09-18T09:20:53;99339;;;16.92;100.00
62632;BME280;48703;51.248;-0.546;2023-09-18T09:23:55;99332;;;16.97;100.00
62632;BME280;48703;51.248;-0.546;2023-09-18T09:26:57;99330;;;17.01;100.00
62632;BME280;48703;51.248;-0.546;2023-09-18T09:29:59;99324;;;17.05;100.00
62632;BME280;48703;51.248;-0.546;2023-09-18T09:32:17;99322;;;17.08;100.00
62632;BME280;48703;51.248;-0.546;2023-09-18T09:35:03;99321;;;17.11;100.00
62632;BME280;48703;51.248;-0.546;2023-09-18T09:38:08;99316;;;17.09;100.00
62632;BME280;48703;51.248;-0.546;2023-09-18T09:41:07;99314;;;17.07;100.00
62632;BME280;48703;51.248;-0.546;2023-09-18T09:44:09;99307;;;17.08;100.00
62632;BME280;48703;51.248;-0.546;2023-09-18T09:47:11;99300;;;17.11;100.00
62632;BME280;48703;51.248;-0.546;2023-09-18T09:50:14;99291;;;17.13;100.00
62632;BME280;48703;51.248;-0.546;2023-09-18T09:53:15;99291;;;17.12;100.00
62632;BME280;48703;51.248;-0.546;2023-09-18T09:56:17;99289;;;17.09;100.00
62632;BME280;48703;51.248;-0.546;2023-09-18T09:59:19;99290;;;17.05;100.00
62632;BME280;48703;51.248;-0.546;2023-09-18T10:02:21;99292;;;17.03;100.00
62632;BME280;48703;51.248;-0.546;2023-09-18T10:05:24;99286;;;17.02;100.00
62632;BME280;48703;51.248;-0.546;2023-09-18T10:08:26;99280;;;17.03;100.00
62632;BME280;48703;51.248;-0.546;2023-09-18T10:11:27;99274;;;17.06;100.00
62632;BME280;48703;51.248;-0.546;2023-09-18T10:14:30;99275;;;17.10;100.00
62632;BME280;48703;51.248;-0.546;2023-09-18T10:17:31;99270;;;17.17;100.00
62632;BME280;48703;51.248;-0.546;2023-09-18T10:20:35;99271;;;17.20;100.00
62632;BME280;48703;51.248;-0.546;2023-09-18T10:23:38;99268;;;17.26;100.00
62632;BME280;48703;51.248;-0.546;2023-09-18T10:26:38;99264;;;17.30;100.00
62632;BME280;48703;51.248;-0.546;2023-09-18T10:29:40;99264;;;17.33;100.00
62632;BME280;48703;51.248;-0.546;2023-09-18T10:32:42;99262;;;17.37;100.00
62632;BME280;48703;51.248;-0.546;2023-09-18T10:35:44;99260;;;17.39;100.00
62632;BME280;48703;51.248;-0.546;2023-09-18T10:38:46;99261;;;17.43;100.00
62632;BME280;48703;51.248;-0.546;2023-09-18T10:41:48;99269;;;17.43;100.00
62632;BME280;48703;51.248;-0.546;2023-09-18T10:44:50;99267;;;17.44;100.00
62632;BME280;48703;51.248;-0.546;2023-09-18T10:47:52;99267;;;17.45;100.00
62632;BME280;48703;51.248;-0.546;2023-09-18T10:50:54;99272;;;17.46;100.00
62632;BME280;48703;51.248;-0.546;2023-09-18T10:53:56;99273;;;17.46;100.00
62632;BME280;48703;51.248;-0.546;2023-09-18T10:56:58;99279;;;17.49;100.00
62632;BME280;48703;51.248;-0.546;2023-09-18T11:00:00;99281;;;17.53;100.00
62632;BME280;48703;51.248;-0.546;2023-09-18T11:03:10;99282;;;17.56;100.00
62632;BME280;48703;51.248;-0.546;2023-09-18T11:06:05;99281;;;17.59;100.00
62632;BME280;48703;51.248;-0.546;2023-09-18T11:09:07;99286;;;17.59;100.00
62632;BME280;48703;51.248;-0.546;2023-09-18T11:12:09;99296;;;17.59;100.00
62632;BME280;48703;51.248;-0.546;2023-09-18T11:15:14;99305;;;17.59;100.00
62632;BME280;48703;51.248;-0.546;2023-09-18T11:18:13;99305;;;17.61;100.00
62632;BME280;48703;51.248;-0.546;2023-09-18T11:21:15;99307;;;17.61;100.00
62632;BME280;48703;51.248;-0.546;2023-09-18T11:24:17;99318;;;17.62;100.00
62632;BME280;48703;51.248;-0.546;2023-09-18T11:27:23;99320;;;17.65;100.00
62632;BME280;48703;51.248;-0.546;2023-09-18T11:30:21;99328;;;17.70;100.00
62632;BME280;48703;51.248;-0.546;2023-09-18T11:33:31;99329;;;17.72;100.00
62632;BME280;48703;51.248;-0.546;2023-09-18T11:36:28;99328;;;17.77;100.00
62632;BME280;48703;51.248;-0.546;2023-09-18T11:39:35;99332;;;17.80;100.00
62632;BME280;48703;51.248;-0.546;2023-09-18T11:42:29;99328;;;17.86;100.00
62632;BME280;48703;51.248;-0.546;2023-09-18T11:45:31;99333;;;17.89;100.00
62632;BME280;48703;51.248;-0.546;2023-09-18T11:48:33;99336;;;17.90;100.00
62632;BME280;48703;51.248;-0.546;2023-09-18T11:51:35;99341;;;17.88;100.00
62632;BME280;48703;51.248;-0.546;2023-09-18T11:54:39;99347;;;17.84;100.00
62632;BME280;48703;51.248;-0.546;2023-09-18T11:57:39;99355;;;17.84;100.00
62632;BME280;48703;51.248;-0.546;2023-09-18T12:00:42;99352;;;17.94;100.00
62632;BME280;48703;51.248;-0.546;2023-09-18T12:03:44;99354;;;18.01;100.00
62632;BME280;48703;51.248;-0.546;2023-09-18T12:06:46;99360;;;18.04;100.00
62632;BME280;48703;51.248;-0.546;2023-09-18T12:09:48;99364;;;18.05;100.00
62632;BME280;48703;51.248;-0.546;2023-09-18T12:12:50;99366;;;18.07;100.00
62632;BME280;48703;51.248;-0.546;2023-09-18T12:15:55;99369;;;18.08;100.00
62632;BME280;48703;51.248;-0.546;2023-09-18T12:18:54;99377;;;18.04;100.00
62632;BME280;48703;51.248;-0.546;2023-09-18T12:21:56;99389;;;18.00;100.00
62632;BME280;48703;51.248;-0.546;2023-09-18T12:25:08;99401;;;17.93;100.00
62632;BME280;48703;51.248;-0.546;2023-09-18T12:28:00;99413;;;17.85;100.00
62632;BME280;48703;51.248;-0.546;2023-09-18T12:31:02;99419;;;17.76;100.00
62632;BME280;48703;51.248;-0.546;2023-09-18T12:34:04;99425;;;17.71;100.00
62632;BME280;48703;51.248;-0.546;2023-09-18T12:37:06;99434;;;17.71;100.00
62632;BME280;48703;51.248;-0.546;2023-09-18T12:40:20;99443;;;17.68;100.00
62632;BME280;48703;51.248;-0.546;2023-09-18T12:43:10;99446;;;17.67;100.00
62632;BME280;48703;51.248;-0.546;2023-09-18T12:46:12;99453;;;17.70;100.00
62632;BME280;48703;51.248;-0.546;2023-09-18T12:49:15;99459;;;17.71;100.00
62632;BME280;48703;51.248;-0.546;2023-09-18T12:52:21;99464;;;17.64;98.80
62632;BME280;48703;51.248;-0.546;2023-09-18T12:55:20;99473;;;17.62;99.23
62632;BME280;48703;51.248;-0.546;2023-09-18T12:58:21;99473;;;17.59;99.03
62632;BME280;48703;51.248;-0.546;2023-09-18T13:01:23;99478;;;17.54;96.59
62632;BME280;48703;51.248;-0.546;2023-09-18T13:04:25;99483;;;17.57;98.36
62632;BME280;48703;51.248;-0.546;2023-09-18T13:07:27;99487;;;17.53;95.78
62632;BME280;48703;51.248;-0.546;2023-09-18T13:10:29;99493;;;17.56;97.59
62632;BME280;48703;51.248;-0.546;2023-09-18T13:13:31;99496;;;17.58;96.58
62632;BME280;48703;51.248;-0.546;2023-09-18T13:16:33;99505;;;17.57;95.63
62632;BME280;48703;51.248;-0.546;2023-09-18T13:19:35;99511;;;17.55;95.66
62632;BME280;48703;51.248;-0.546;2023-09-18T13:22:38;99514;;;17.57;94.78
62632;BME280;48703;51.248;-0.546;2023-09-18T13:25:40;99517;;;17.60;94.76
62632;BME280;48703;51.248;-0.546;2023-09-18T13:28:42;99520;;;17.62;92.02
62632;BME280;48703;51.248;-0.546;2023-09-18T13:31:43;99526;;;17.63;89.81
62632;BME280;48703;51.248;-0.546;2023-09-18T13:34:45;99530;;;17.67;90.72
62632;BME280;48703;51.248;-0.546;2023-09-18T13:37:47;99536;;;17.63;87.47
62632;BME280;48703;51.248;-0.546;2023-09-18T13:40:50;99534;;;17.62;88.09
62632;BME280;48703;51.248;-0.546;2023-09-18T13:43:52;99542;;;17.62;87.86
62632;BME280;48703;51.248;-0.546;2023-09-18T13:46:54;99546;;;17.61;84.17
62632;BME280;48703;51.248;-0.546;2023-09-18T13:49:56;99550;;;17.63;83.35
62632;BME280;48703;51.248;-0.546;2023-09-18T13:52:58;99551;;;17.67;84.87
62632;BME280;48703;51.248;-0.546;2023-09-18T13:56:00;99560;;;17.70;83.54
62632;BME280;48703;51.248;-0.546;2023-09-18T13:59:02;99562;;;17.73;81.51
62632;BME280;48703;51.248;-0.546;2023-09-18T14:02:04;99568;;;17.71;78.39
62632;BME280;48703;51.248;-0.546;2023-09-18T14:05:06;99574;;;17.73;77.45
62632;BME280;48703;51.248;-0.546;2023-09-18T14:08:08;99587;;;17.71;73.94
62632;BME280;48703;51.248;-0.546;2023-09-18T14:11:10;99593;;;17.71;74.03
62632;BME280;48703;51.248;-0.546;2023-09-18T14:14:12;99602;;;17.74;74.90
62632;BME280;48703;51.248;-0.546;2023-09-18T14:17:14;99606;;;17.76;72.17
62632;BME280;48703;51.248;-0.546;2023-09-18T14:20:16;99605;;;17.82;73.17
62632;BME280;48703;51.248;-0.546;2023-09-18T14:23:18;99600;;;17.90;76.39
62632;BME280;48703;51.248;-0.546;2023-09-18T14:26:20;99603;;;17.93;74.15
62632;BME280;48703;51.248;-0.546;2023-09-18T14:29:23;99603;;;17.99;74.88
62632;BME280;48703;51.248;-0.546;2023-09-18T14:32:25;99615;;;18.03;74.23
62632;BME280;48703;51.248;-0.546;2023-09-18T14:35:27;99617;;;18.08;73.34
62632;BME280;48703;51.248;-0.546;2023-09-18T14:38:29;99622;;;18.04;74.92
62632;BME280;48703;51.248;-0.546;2023-09-18T14:41:31;99629;;;18.07;74.40
62632;BME280;48703;51.248;-0.546;2023-09-18T14:44:33;99632;;;18.15;76.07
62632;BME280;48703;51.248;-0.546;2023-09-18T14:47:35;99635;;;18.15;75.36
62632;BME280;48703;51.248;-0.546;2023-09-18T14:50:37;99642;;;18.15;74.75
62632;BME280;48703;51.248;-0.546;2023-09-18T14:53:39;99648;;;18.23;73.50
62632;BME280;48703;51.248;-0.546;2023-09-18T14:56:41;99647;;;18.31;75.17
62632;BME280;48703;51.248;-0.546;2023-09-18T14:59:43;99652;;;18.36;75.46
62632;BME280;48703;51.248;-0.546;2023-09-18T15:02:45;99651;;;18.46;73.83
62632;BME280;48703;51.248;-0.546;2023-09-18T15:05:47;99656;;;18.55;72.72
62632;BME280;48703;51.248;-0.546;2023-09-18T15:08:49;99661;;;18.48;73.68
62632;BME280;48703;51.248;-0.546;2023-09-18T15:11:52;99664;;;18.32;73.97
62632;BME280;48703;51.248;-0.546;2023-09-18T15:14:54;99669;;;18.31;76.03
62632;BME280;48703;51.248;-0.546;2023-09-18T15:17:56;99669;;;18.33;74.21
62632;BME280;48703;51.248;-0.546;2023-09-18T15:20:58;99678;;;18.30;76.23
62632;BME280;48703;51.248;-0.546;2023-09-18T15:24:00;99675;;;18.36;74.82
62632;BME280;48703;51.248;-0.546;2023-09-18T15:27:02;99680;;;18.45;73.29
62632;BME280;48703;51.248;-0.546;2023-09-18T15:30:04;99687;;;18.58;75.09
62632;BME280;48703;51.248;-0.546;2023-09-18T15:33:06;99689;;;18.62;72.31
62632;BME280;48703;51.248;-0.546;2023-09-18T15:36:08;99694;;;18.67;73.44
62632;BME280;48703;51.248;-0.546;2023-09-18T15:39:10;99698;;;18.59;69.07
62632;BME280;48703;51.248;-0.546;2023-09-18T15:42:12;99700;;;18.39;69.26
62632;BME280;48703;51.248;-0.546;2023-09-18T15:45:14;99708;;;18.32;69.12
62632;BME280;48703;51.248;-0.546;2023-09-18T15:48:16;99711;;;18.20;69.29
62632;BME280;48703;51.248;-0.546;2023-09-18T15:51:18;99710;;;18.11;70.22
62632;BME280;48703;51.248;-0.546;2023-09-18T15:54:20;99713;;;18.06;70.00
62632;BME280;48703;51.248;-0.546;2023-09-18T15:57:23;99717;;;18.16;71.33
62632;BME280;48703;51.248;-0.546;2023-09-18T16:00:25;99718;;;18.24;67.57
62632;BME280;48703;51.248;-0.546;2023-09-18T16:03:27;99724;;;18.25;62.37
62632;BME280;48703;51.248;-0.546;2023-09-18T16:06:29;99727;;;18.30;63.81
62632;BME280;48703;51.248;-0.546;2023-09-18T16:09:31;99727;;;18.35;63.00
62632;BME280;48703;51.248;-0.546;2023-09-18T16:12:33;99729;;;18.34;61.22
62632;BME280;48703;51.248;-0.546;2023-09-18T16:15:35;99737;;;18.34;59.98
62632;BME280;48703;51.248;-0.546;2023-09-18T16:18:38;99743;;;18.33;60.09